createdAt,value
2017-08-13T00:00:48.650Z,10.73
2017-08-13T00:03:16.165Z,3.12
2017-08-13T00:05:43.697Z,3.95
2017-08-13T00:08:11.259Z,4.45
2017-08-13T00:10:38.866Z,3.95
2017-08-13T00:13:06.418Z,3.70
2017-08-13T00:15:34.027Z,3.33
2017-08-13T00:18:01.609Z,4.00
2017-08-13T00:20:29.106Z,3.08
2017-08-13T00:22:56.656Z,4.18
2017-08-13T00:25:24.182Z,4.47
2017-08-13T00:27:51.726Z,3.08
2017-08-13T00:30:19.457Z,4.07
2017-08-13T00:32:46.979Z,3.25
2017-08-13T00:35:14.507Z,3.20
2017-08-13T00:37:42.178Z,3.62
2017-08-13T00:40:09.715Z,3.15
2017-08-13T00:42:37.280Z,3.35
2017-08-13T00:45:04.863Z,2.97
2017-08-13T00:47:32.373Z,3.75
2017-08-13T00:49:59.904Z,7.12
2017-08-13T00:52:27.459Z,3.30
2017-08-13T00:54:54.986Z,2.95
2017-08-13T00:57:22.549Z,5.53
2017-08-13T00:59:50.119Z,3.25
2017-08-13T01:02:17.683Z,3.40
2017-08-13T01:04:45.248Z,3.55
2017-08-13T01:07:12.832Z,3.58
2017-08-13T01:09:40.379Z,5.18
2017-08-13T01:12:07.885Z,4.82
2017-08-13T01:14:35.516Z,4.40
2017-08-13T01:17:03.064Z,5.22
2017-08-13T01:19:30.664Z,4.12
2017-08-13T01:21:58.287Z,4.65
2017-08-13T01:24:25.802Z,4.90
2017-08-13T01:26:53.371Z,5.45
2017-08-13T01:29:20.907Z,4.82
2017-08-13T01:31:48.452Z,4.37
2017-08-13T01:34:15.951Z,4.25
2017-08-13T01:36:43.557Z,6.85
2017-08-13T01:39:11.129Z,4.22
2017-08-13T01:41:38.671Z,5.93
2017-08-13T01:44:06.374Z,7.43
2017-08-13T01:46:33.925Z,4.90
2017-08-13T01:49:01.490Z,6.97
2017-08-13T01:51:29.216Z,5.40
2017-08-13T01:53:56.788Z,4.93
2017-08-13T01:56:24.339Z,4.82
2017-08-13T01:58:52.072Z,3.55
2017-08-13T02:01:19.618Z,3.87
2017-08-13T02:03:47.111Z,3.28
2017-08-13T02:06:14.830Z,4.53
2017-08-13T02:08:42.353Z,4.53
2017-08-13T02:11:09.898Z,3.80
2017-08-13T02:13:37.505Z,3.72
2017-08-13T02:16:05.047Z,4.10
2017-08-13T02:18:32.547Z,3.80
2017-08-13T02:21:00.130Z,3.28
2017-08-13T02:23:27.664Z,3.62
2017-08-13T02:25:55.201Z,3.55
2017-08-13T02:28:22.762Z,3.83
2017-08-13T02:30:50.319Z,9.05
2017-08-13T02:33:17.857Z,3.42
2017-08-13T02:35:45.391Z,5.57
2017-08-13T02:38:12.899Z,3.25
2017-08-13T02:40:40.459Z,3.70
2017-08-13T02:43:08.054Z,3.20
2017-08-13T02:45:35.586Z,4.95
2017-08-13T02:48:03.155Z,3.08
2017-08-13T02:50:30.748Z,5.40
2017-08-13T02:52:58.274Z,2.92
2017-08-13T02:55:25.838Z,3.15
2017-08-13T02:57:53.373Z,3.50
2017-08-13T03:00:20.868Z,2.90
2017-08-13T03:02:48.416Z,3.12
2017-08-13T03:05:15.971Z,5.25
2017-08-13T03:07:43.506Z,3.72
2017-08-13T03:10:10.994Z,5.45
2017-08-13T03:12:38.750Z,3.47
2017-08-13T03:15:06.282Z,5.25
2017-08-13T03:17:33.764Z,4.30
2017-08-13T03:20:01.325Z,4.10
2017-08-13T03:22:28.854Z,4.45
2017-08-13T03:24:56.373Z,5.22
2017-08-13T03:27:23.905Z,5.95
2017-08-13T03:29:51.470Z,5.65
2017-08-13T03:32:18.978Z,4.47
2017-08-13T03:34:46.569Z,4.70
2017-08-13T03:37:14.137Z,4.60
2017-08-13T03:39:41.642Z,6.57
2017-08-13T03:42:09.188Z,5.62
2017-08-13T03:44:36.751Z,4.60
2017-08-13T03:47:04.336Z,4.18
2017-08-13T03:49:31.916Z,4.28
2017-08-13T03:51:59.485Z,4.95
2017-08-13T03:54:27.004Z,4.80
2017-08-13T03:56:54.748Z,4.47
2017-08-13T03:59:22.270Z,4.30
2017-08-13T04:01:49.826Z,4.43
2017-08-13T04:04:17.342Z,3.90
2017-08-13T04:06:44.918Z,5.03
2017-08-13T04:09:12.419Z,4.07
2017-08-13T04:11:40.164Z,4.70
2017-08-13T04:14:07.706Z,4.22
2017-08-13T04:16:35.315Z,3.83
2017-08-13T04:19:02.842Z,3.60
2017-08-13T04:21:30.360Z,3.95
2017-08-13T04:23:57.867Z,6.12
2017-08-13T04:26:25.463Z,3.62
2017-08-13T04:28:53.001Z,4.10
2017-08-13T04:31:20.551Z,3.47
2017-08-13T04:33:48.142Z,3.37
2017-08-13T04:36:15.721Z,3.80
2017-08-13T04:38:43.252Z,3.95
2017-08-13T04:41:10.810Z,6.10
2017-08-13T04:43:38.318Z,3.50
2017-08-13T04:46:05.879Z,5.25
2017-08-13T04:48:33.440Z,3.65
2017-08-13T04:51:00.925Z,3.22
2017-08-13T04:53:28.465Z,4.55
2017-08-13T04:55:56.012Z,4.30
2017-08-13T04:58:23.548Z,3.42
2017-08-13T05:00:51.104Z,3.35
2017-08-13T05:03:18.712Z,6.03
2017-08-13T05:05:46.198Z,6.87
2017-08-13T05:08:13.716Z,3.60
2017-08-13T05:10:41.486Z,3.50
2017-08-13T05:13:08.968Z,3.30
2017-08-13T05:15:36.491Z,2.95
2017-08-13T05:18:04.053Z,4.65
2017-08-13T05:20:31.581Z,3.15
2017-08-13T05:22:59.141Z,3.42
2017-08-13T05:25:26.719Z,3.80
2017-08-13T05:27:54.219Z,4.03
2017-08-13T05:30:21.774Z,2.80
2017-08-13T05:32:49.314Z,3.75
2017-08-13T05:35:16.888Z,2.37
2017-08-13T05:37:44.423Z,2.40
2017-08-13T05:40:12.020Z,17.33
2017-08-13T05:42:39.568Z,2.40
2017-08-13T05:45:07.108Z,2.10
2017-08-13T05:47:34.785Z,3.37
2017-08-13T05:50:02.332Z,2.42
2017-08-13T05:52:29.888Z,2.85
2017-08-13T05:54:57.467Z,3.10
2017-08-13T05:57:25.013Z,2.67
2017-08-13T05:59:52.554Z,2.35
2017-08-13T06:02:20.115Z,3.40
2017-08-13T06:04:47.650Z,4.95
2017-08-13T06:07:15.134Z,4.18
2017-08-13T06:09:42.755Z,3.92
2017-08-13T06:12:10.286Z,2.47
2017-08-13T06:14:37.827Z,2.65
2017-08-13T06:17:05.414Z,2.90
2017-08-13T06:19:32.965Z,2.33
2017-08-13T06:22:00.523Z,3.90
2017-08-13T06:24:28.228Z,2.07
2017-08-13T06:26:55.750Z,2.10
2017-08-13T06:29:23.278Z,2.40
2017-08-13T06:31:50.870Z,2.17
2017-08-13T06:34:18.410Z,1.87
2017-08-13T06:36:45.984Z,2.47
2017-08-13T06:39:13.726Z,2.40
2017-08-13T06:41:41.275Z,2.53
2017-08-13T06:44:08.813Z,2.10
2017-08-13T06:46:36.372Z,2.37
2017-08-13T06:49:04.625Z,3.87
2017-08-13T06:51:32.121Z,2.22
2017-08-13T06:53:59.804Z,2.58
2017-08-13T06:56:27.405Z,2.83
2017-08-13T06:58:54.938Z,2.37
2017-08-13T07:01:22.554Z,2.50
2017-08-13T07:03:50.122Z,3.03
2017-08-13T07:06:17.606Z,3.00
2017-08-13T07:08:45.308Z,3.53
2017-08-13T07:11:12.883Z,2.20
2017-08-13T07:13:40.441Z,1.90
2017-08-13T07:16:08.009Z,1.93
2017-08-13T07:18:35.529Z,1.50
2017-08-13T07:21:03.045Z,1.50
2017-08-13T07:23:30.625Z,1.43
2017-08-13T07:25:58.122Z,2.70
2017-08-13T07:28:25.709Z,1.40
2017-08-13T07:30:53.230Z,2.13
2017-08-13T07:33:20.775Z,1.40
2017-08-13T07:35:48.506Z,1.00
2017-08-13T07:38:16.114Z,1.20
2017-08-13T07:40:43.665Z,1.30
2017-08-13T07:43:12.441Z,1.20
2017-08-13T07:45:40.220Z,1.20
2017-08-13T07:48:08.026Z,1.30
2017-08-13T07:50:36.363Z,1.10
2017-08-13T07:53:03.985Z,1.13
2017-08-13T07:55:31.495Z,2.00
2017-08-13T07:57:59.000Z,1.00
2017-08-13T08:00:26.812Z,2.13
2017-08-13T08:02:54.394Z,0.90
2017-08-13T08:05:21.973Z,1.30
2017-08-13T08:07:49.718Z,1.00
2017-08-13T08:10:17.223Z,2.60
2017-08-13T08:12:44.797Z,1.20
2017-08-13T08:15:12.446Z,1.17
2017-08-13T08:17:40.040Z,1.00
2017-08-13T08:20:07.588Z,0.93
2017-08-13T08:22:35.200Z,1.27
2017-08-13T08:25:02.765Z,4.30
2017-08-13T08:27:30.951Z,1.17
2017-08-13T08:29:58.526Z,0.90
2017-08-13T08:32:26.119Z,1.13
2017-08-13T08:34:53.670Z,1.07
2017-08-13T08:37:21.232Z,2.30
2017-08-13T08:39:49.375Z,1.00
2017-08-13T08:42:16.923Z,1.30
2017-08-13T08:44:44.554Z,1.30
2017-08-13T08:47:12.234Z,1.20
2017-08-13T08:49:39.800Z,1.30
2017-08-13T08:52:07.551Z,1.60
2017-08-13T08:54:35.150Z,1.50
2017-08-13T08:57:02.705Z,1.73
2017-08-13T08:59:30.538Z,1.50
2017-08-13T09:01:58.122Z,3.03
2017-08-13T09:04:26.128Z,1.80
2017-08-13T09:06:54.709Z,1.50
2017-08-13T09:09:22.421Z,1.97
2017-08-13T09:11:50.727Z,2.47
2017-08-13T09:14:18.376Z,2.00
2017-08-13T09:16:45.996Z,1.70
2017-08-13T09:19:13.649Z,3.33
2017-08-13T09:21:42.256Z,2.30
2017-08-13T09:24:09.807Z,2.43
2017-08-13T09:26:37.636Z,7.17
2017-08-13T09:29:05.894Z,2.30
2017-08-13T09:31:33.454Z,2.80
2017-08-13T09:34:01.015Z,4.83
2017-08-13T09:36:28.886Z,2.10
2017-08-13T09:38:56.465Z,2.80
2017-08-13T09:41:24.067Z,4.25
2017-08-13T09:43:51.837Z,2.62
2017-08-13T09:46:19.425Z,2.25
2017-08-13T09:48:47.031Z,2.65
2017-08-13T09:51:14.716Z,3.28
2017-08-13T09:53:42.313Z,2.10
2017-08-13T09:56:09.824Z,1.97
2017-08-13T09:58:37.431Z,2.27
2017-08-13T10:01:05.095Z,1.90
2017-08-13T10:03:32.886Z,2.00
2017-08-13T10:06:00.495Z,2.23
2017-08-13T10:08:28.091Z,2.13
2017-08-13T10:10:55.692Z,2.40
2017-08-13T10:13:24.154Z,2.40
2017-08-13T10:15:51.730Z,2.30
2017-08-13T10:18:19.353Z,2.40
2017-08-13T10:20:47.011Z,2.55
2017-08-13T10:23:14.566Z,1.92
2017-08-13T10:25:42.151Z,2.47
2017-08-13T10:28:09.978Z,5.43
2017-08-13T10:30:37.566Z,2.20
2017-08-13T10:33:05.188Z,2.87
2017-08-13T10:35:32.810Z,2.90
2017-08-13T10:38:00.384Z,2.50
2017-08-13T10:40:28.111Z,4.90
2017-08-13T10:42:55.917Z,2.75
2017-08-13T10:45:23.639Z,2.60
2017-08-13T10:47:53.268Z,3.55
2017-08-13T10:50:21.520Z,3.85
2017-08-13T10:52:49.728Z,3.87
2017-08-13T10:55:17.308Z,3.20
2017-08-13T10:57:45.627Z,2.87
2017-08-13T11:00:14.011Z,3.55
2017-08-13T11:02:41.755Z,4.80
2017-08-13T11:05:09.342Z,3.70
2017-08-13T11:07:36.923Z,8.10
2017-08-13T11:10:04.450Z,3.20
2017-08-13T11:12:33.119Z,4.18
2017-08-13T11:15:01.522Z,3.20
2017-08-13T11:17:31.655Z,3.62
2017-08-13T11:19:59.300Z,3.05
2017-08-13T11:22:27.067Z,3.37
2017-08-13T11:24:54.686Z,3.35
2017-08-13T11:27:22.288Z,3.35
2017-08-13T11:29:51.678Z,3.55
2017-08-13T11:32:19.322Z,2.90
2017-08-13T11:34:46.922Z,3.28
2017-08-13T11:37:14.502Z,3.87
2017-08-13T11:39:42.089Z,4.18
2017-08-13T11:42:09.883Z,4.20
2017-08-13T11:44:37.451Z,4.00
2017-08-13T11:47:05.023Z,5.25
2017-08-13T11:49:32.603Z,5.20
2017-08-13T11:52:00.184Z,4.20
2017-08-13T11:54:27.751Z,4.20
2017-08-13T11:56:55.365Z,5.00
2017-08-13T11:59:23.809Z,6.60
2017-08-13T12:01:51.426Z,5.17
2017-08-13T12:04:19.245Z,5.13
2017-08-13T12:06:46.943Z,3.70
2017-08-13T12:09:14.550Z,17.48
2017-08-13T12:11:42.187Z,3.90
2017-08-13T12:14:09.847Z,4.50
2017-08-13T12:16:37.427Z,5.15
2017-08-13T12:19:05.144Z,13.48
2017-08-13T12:21:32.766Z,5.87
2017-08-13T12:24:01.177Z,7.20
2017-08-13T12:26:28.729Z,5.53
2017-08-13T12:28:56.243Z,7.20
2017-08-13T12:31:23.733Z,6.60
2017-08-13T12:33:51.510Z,7.68
2017-08-13T12:36:19.078Z,5.97
2017-08-13T12:38:47.170Z,5.43
2017-08-13T12:41:14.839Z,10.43
2017-08-13T12:43:43.047Z,8.93
2017-08-13T12:46:10.683Z,9.30
2017-08-13T12:48:38.566Z,9.25
2017-08-13T12:51:06.170Z,5.05
2017-08-13T12:53:33.757Z,7.40
2017-08-13T12:56:01.504Z,11.77
2017-08-13T12:58:29.056Z,4.30
2017-08-13T13:00:56.603Z,3.27
2017-08-13T13:03:24.192Z,2.77
2017-08-13T13:05:51.740Z,2.13
2017-08-13T13:08:19.272Z,2.60
2017-08-13T13:10:46.927Z,3.20
2017-08-13T13:13:14.490Z,3.57
2017-08-13T13:15:42.009Z,3.07
2017-08-13T13:18:09.751Z,5.93
2017-08-13T13:20:37.283Z,3.00
2017-08-13T13:23:04.875Z,3.53
2017-08-13T13:25:32.497Z,3.70
2017-08-13T13:28:00.049Z,2.80
2017-08-13T13:30:27.613Z,3.13
2017-08-13T13:32:55.234Z,2.67
2017-08-13T13:35:22.797Z,3.40
2017-08-13T13:37:50.439Z,2.50
2017-08-13T13:40:18.318Z,2.40
2017-08-13T13:42:46.264Z,2.17
2017-08-13T13:45:13.850Z,1.97
2017-08-13T13:47:41.935Z,2.10
2017-08-13T13:50:09.566Z,1.90
2017-08-13T13:52:37.175Z,3.10
2017-08-13T13:55:04.765Z,1.77
2017-08-13T13:57:32.379Z,4.40
2017-08-13T13:59:59.956Z,2.07
2017-08-13T14:02:27.599Z,1.67
2017-08-13T14:04:55.352Z,1.80
2017-08-13T14:07:22.897Z,2.77
2017-08-13T14:09:50.558Z,1.93
2017-08-13T14:12:18.238Z,3.13
2017-08-13T14:14:46.434Z,2.07
2017-08-13T14:17:14.017Z,2.00
2017-08-13T14:19:43.703Z,1.93
2017-08-13T14:22:11.340Z,1.65
2017-08-13T14:24:39.029Z,3.30
2017-08-13T14:27:06.665Z,1.80
2017-08-13T14:29:34.265Z,4.35
2017-08-13T14:32:02.161Z,2.12
2017-08-13T14:34:29.876Z,2.95
2017-08-13T14:36:57.494Z,2.67
2017-08-13T14:39:25.084Z,1.95
2017-08-13T14:41:52.658Z,2.53
2017-08-13T14:44:20.310Z,2.80
2017-08-13T14:46:48.889Z,2.28
2017-08-13T14:49:16.626Z,3.35
2017-08-13T14:51:44.199Z,8.00
2017-08-13T14:54:11.933Z,3.17
2017-08-13T14:56:39.568Z,3.97
2017-08-13T14:59:07.166Z,4.03
2017-08-13T15:01:34.774Z,3.85
2017-08-13T15:04:02.346Z,6.10
2017-08-13T15:06:29.894Z,5.20
2017-08-13T15:08:57.749Z,4.05
2017-08-13T15:11:25.345Z,4.57
2017-08-13T15:13:52.970Z,4.40
2017-08-13T15:16:20.731Z,10.18
2017-08-13T15:18:48.287Z,5.25
2017-08-13T15:21:15.919Z,5.75
2017-08-13T15:23:43.581Z,5.68
2017-08-13T15:26:11.205Z,8.52
2017-08-13T15:28:38.758Z,5.80
2017-08-13T15:31:06.467Z,6.03
2017-08-13T15:33:34.730Z,6.40
2017-08-13T15:36:02.642Z,6.45
2017-08-13T15:38:31.354Z,5.37
2017-08-13T15:40:58.986Z,4.47
2017-08-13T15:43:26.705Z,5.85
2017-08-13T15:45:54.423Z,4.53
2017-08-13T15:48:22.911Z,3.92
2017-08-13T15:50:50.513Z,3.70
2017-08-13T15:53:18.402Z,4.05
2017-08-13T15:55:46.023Z,6.12
2017-08-13T15:58:13.617Z,4.40
2017-08-13T16:00:41.586Z,6.75
2017-08-13T16:03:09.444Z,4.57
2017-08-13T16:05:37.026Z,6.10
2017-08-13T16:08:04.686Z,5.57
2017-08-13T16:10:32.261Z,5.18
2017-08-13T16:12:59.827Z,4.87
2017-08-13T16:15:27.551Z,4.97
2017-08-13T16:17:55.130Z,4.95
2017-08-13T16:20:22.663Z,8.50
2017-08-13T16:22:50.283Z,13.73
2017-08-13T16:25:17.979Z,4.43
2017-08-13T16:27:45.587Z,7.00
2017-08-13T16:30:13.247Z,7.30
2017-08-13T16:32:40.821Z,5.80
2017-08-13T16:35:08.546Z,5.50
2017-08-13T16:37:36.342Z,4.62
2017-08-13T16:40:03.915Z,4.80
2017-08-13T16:42:31.451Z,5.15
2017-08-13T16:44:59.068Z,4.78
2017-08-13T16:47:26.731Z,4.97
2017-08-13T16:49:54.310Z,4.20
2017-08-13T16:52:22.862Z,4.87
2017-08-13T16:54:52.360Z,4.60
2017-08-13T16:57:21.154Z,4.40
2017-08-13T16:59:49.910Z,4.20
2017-08-13T17:02:17.987Z,4.03
2017-08-13T17:04:46.658Z,7.75
2017-08-13T17:07:14.557Z,3.83
2017-08-13T17:09:43.978Z,4.93
2017-08-13T17:12:12.503Z,4.37
2017-08-13T17:14:40.402Z,4.55
2017-08-13T17:17:07.940Z,4.90
2017-08-13T17:19:35.574Z,6.85
2017-08-13T17:22:03.208Z,3.95
2017-08-13T17:24:30.794Z,4.05
2017-08-13T17:26:58.378Z,3.83
2017-08-13T17:29:26.161Z,3.60
2017-08-13T17:31:53.719Z,6.80
2017-08-13T17:34:21.288Z,6.55
2017-08-13T17:36:48.899Z,6.60
2017-08-13T17:39:16.471Z,4.40
2017-08-13T17:41:44.223Z,4.75
2017-08-13T17:44:12.018Z,6.00
2017-08-13T17:46:40.155Z,4.70
2017-08-13T17:49:07.778Z,4.68
2017-08-13T17:51:35.756Z,5.37
2017-08-13T17:54:04.286Z,5.97
2017-08-13T17:56:31.918Z,10.02
2017-08-13T17:59:01.539Z,4.55
2017-08-13T18:01:29.109Z,5.35
2017-08-13T18:03:56.962Z,4.23
2017-08-13T18:06:24.640Z,4.30
2017-08-13T18:08:52.277Z,8.65
2017-08-13T18:11:19.964Z,11.73
2017-08-13T18:13:48.020Z,6.68
2017-08-13T18:16:15.709Z,7.28
2017-08-13T18:18:43.277Z,5.43
2017-08-13T18:21:11.017Z,6.07
2017-08-13T18:23:38.651Z,6.05
2017-08-13T18:26:06.324Z,9.05
2017-08-13T18:28:34.038Z,6.37
2017-08-13T18:31:01.649Z,9.80
2017-08-13T18:33:29.358Z,5.68
2017-08-13T18:35:57.027Z,6.82
2017-08-13T18:38:25.322Z,5.45
2017-08-13T18:40:53.259Z,9.18
2017-08-13T18:43:20.889Z,9.77
2017-08-13T18:45:48.525Z,10.10
2017-08-13T18:48:16.133Z,6.68
2017-08-13T18:50:44.044Z,6.60
2017-08-13T18:53:15.762Z,7.18
2017-08-13T18:55:43.945Z,6.72
2017-08-13T18:58:12.890Z,6.50
2017-08-13T19:00:42.050Z,9.27
2017-08-13T19:03:09.695Z,10.63
2017-08-13T19:05:37.386Z,13.18
2017-08-13T19:08:05.006Z,15.23
2017-08-13T19:10:32.635Z,12.23
2017-08-13T19:13:01.431Z,12.10
2017-08-13T19:15:29.091Z,14.95
2017-08-13T19:17:56.838Z,13.40
2017-08-13T19:20:24.462Z,14.68
2017-08-13T19:22:52.103Z,19.33
2017-08-13T19:25:21.004Z,16.10
2017-08-13T19:27:48.906Z,14.70
2017-08-13T19:30:16.689Z,18.87
2017-08-13T19:32:44.401Z,18.27
2017-08-13T19:35:14.169Z,14.77
2017-08-13T19:37:43.012Z,10.05
2017-08-13T19:40:12.301Z,11.18
2017-08-13T19:42:42.075Z,11.02
2017-08-13T19:45:09.762Z,14.13
2017-08-13T19:47:37.357Z,13.60
2017-08-13T19:50:04.998Z,13.38
2017-08-13T19:52:32.578Z,14.13
2017-08-13T19:55:00.156Z,12.20
2017-08-13T19:57:28.750Z,15.73
2017-08-13T19:59:56.794Z,14.00
2017-08-13T20:02:24.434Z,12.98
2017-08-13T20:04:52.280Z,9.73
2017-08-13T20:07:19.845Z,11.30
2017-08-13T20:09:48.463Z,12.23
2017-08-13T20:12:16.321Z,15.25
2017-08-13T20:14:43.926Z,16.50
2017-08-13T20:17:12.406Z,15.52
2017-08-13T20:19:40.294Z,19.45
2017-08-13T20:22:07.914Z,16.75
2017-08-13T20:24:35.549Z,12.30
2017-08-13T20:27:03.729Z,14.27
2017-08-13T20:29:31.324Z,11.85
2017-08-13T20:31:58.903Z,21.80
2017-08-13T20:34:27.334Z,15.13
2017-08-13T20:36:54.999Z,20.00
2017-08-13T20:39:23.746Z,19.70
2017-08-13T20:41:51.557Z,15.43
2017-08-13T20:44:19.175Z,21.73
2017-08-13T20:46:46.806Z,14.60
2017-08-13T20:49:14.810Z,18.15
2017-08-13T20:51:42.903Z,14.70
2017-08-13T20:54:10.519Z,17.95
2017-08-13T20:56:38.123Z,14.75
2017-08-13T20:59:05.740Z,23.27
2017-08-13T21:01:33.358Z,12.82
2017-08-13T21:04:01.061Z,14.75
2017-08-13T21:06:28.638Z,12.27
2017-08-13T21:08:56.209Z,11.57
2017-08-13T21:11:23.833Z,11.63
2017-08-13T21:13:51.383Z,12.18
2017-08-13T21:16:18.942Z,9.77
2017-08-13T21:18:47.567Z,9.75
2017-08-13T21:21:15.142Z,8.70
2017-08-13T21:23:43.286Z,8.13
2017-08-13T21:26:10.918Z,11.90
2017-08-13T21:28:38.449Z,13.48
2017-08-13T21:31:06.063Z,10.90
2017-08-13T21:33:33.702Z,12.10
2017-08-13T21:36:01.326Z,11.63
2017-08-13T21:38:31.748Z,9.10
2017-08-13T21:40:59.463Z,7.70
2017-08-13T21:43:27.096Z,7.40
2017-08-13T21:45:54.677Z,8.70
2017-08-13T21:48:22.454Z,10.77
2017-08-13T21:50:50.070Z,9.05
2017-08-13T21:53:17.645Z,8.90
2017-08-13T21:55:45.208Z,8.00
2017-08-13T21:58:12.762Z,9.60
2017-08-13T22:00:40.378Z,11.10
2017-08-13T22:03:08.014Z,8.65
2017-08-13T22:05:35.553Z,11.05
2017-08-13T22:08:03.080Z,8.45
2017-08-13T22:10:31.467Z,11.23
2017-08-13T22:12:59.017Z,9.55
2017-08-13T22:15:26.621Z,11.90
2017-08-13T22:17:55.873Z,12.85
2017-08-13T22:20:23.450Z,12.88
2017-08-13T22:25:38.722Z,11.18
2017-08-13T22:28:06.264Z,10.05
2017-08-13T22:30:33.858Z,15.38
2017-08-13T22:33:01.451Z,10.77
2017-08-13T22:35:28.952Z,12.70
2017-08-13T22:37:56.530Z,11.60
2017-08-13T22:40:24.149Z,10.80
2017-08-13T22:42:51.713Z,11.98
2017-08-13T22:45:19.255Z,9.88
2017-08-13T22:47:46.850Z,10.55
2017-08-13T22:50:14.357Z,10.00
2017-08-13T22:52:41.917Z,10.82
2017-08-13T22:55:09.666Z,10.60
2017-08-13T22:57:37.180Z,13.05
2017-08-13T23:00:04.712Z,13.80
2017-08-13T23:02:32.317Z,8.93
2017-08-13T23:04:59.858Z,11.07
2017-08-13T23:07:27.354Z,11.30
2017-08-13T23:09:55.118Z,8.40
2017-08-13T23:12:22.655Z,11.93
2017-08-13T23:14:50.187Z,9.48
2017-08-13T23:17:17.764Z,12.45
2017-08-13T23:19:45.298Z,17.30
2017-08-13T23:22:12.881Z,17.73
2017-08-13T23:24:40.591Z,20.73
2017-08-13T23:27:08.180Z,18.30
2017-08-13T23:29:35.735Z,14.82
2017-08-13T23:32:03.311Z,11.25
2017-08-13T23:34:30.860Z,9.32
2017-08-13T23:36:58.433Z,11.15
2017-08-13T23:39:25.997Z,7.93
2017-08-13T23:41:53.547Z,7.55
2017-08-13T23:44:21.127Z,8.80
2017-08-13T23:46:48.686Z,7.35
2017-08-13T23:49:16.217Z,7.78
2017-08-13T23:51:43.801Z,13.20
2017-08-13T23:54:11.384Z,9.25
2017-08-13T23:56:38.934Z,12.18
2017-08-13T23:59:06.477Z,12.65
